createdAt,value
2023-04-26T00:00:00.217Z,65784.31
2023-04-26T00:05:05.337Z,65833.41
2023-04-26T00:10:10.904Z,65839.72
2023-04-26T00:15:16.210Z,65838.13
2023-04-26T00:20:20.436Z,65857.28
2023-04-26T00:25:24.304Z,65859.06
2023-04-26T00:30:29.654Z,65830.84
2023-04-26T00:35:33.484Z,65837.06
2023-04-26T00:40:37.460Z,65803.41
2023-04-26T00:45:43.097Z,65846.88
2023-04-26T00:50:48.537Z,65796.44
2023-04-26T00:55:53.815Z,65886.34
2023-04-26T01:00:59.546Z,65866.38
2023-04-26T01:06:03.426Z,65936.44
2023-04-26T01:11:07.790Z,65834.94
2023-04-26T01:16:15.238Z,65874.47
2023-04-26T01:21:22.301Z,65919.50
2023-04-26T01:26:27.690Z,65845.63
2023-04-26T01:31:31.656Z,65911.91
2023-04-26T01:36:35.693Z,65874.47
2023-04-26T01:41:41.331Z,65778.69
2023-04-26T01:46:45.398Z,65827.97
2023-04-26T01:51:50.072Z,65890.69
2023-04-26T01:56:55.355Z,65845.72
2023-04-26T02:01:59.371Z,65814.72
2023-04-26T02:07:03.610Z,65813.72
2023-04-26T02:12:09.027Z,65825.75
2023-04-26T02:17:12.926Z,65793.78
2023-04-26T02:22:17.569Z,65818.44
2023-04-26T02:27:22.862Z,65844.00
2023-04-26T02:32:26.871Z,65880.91
2023-04-26T02:37:30.855Z,65864.84
2023-04-26T02:42:36.101Z,65862.28
2023-04-26T02:47:40.312Z,65873.94
2023-04-26T02:52:44.311Z,65797.06
2023-04-26T02:57:49.805Z,65867.63
2023-04-26T03:02:53.924Z,65820.16
2023-04-26T03:07:58.636Z,65782.72
2023-04-26T03:13:04.530Z,65828.06
2023-04-26T03:18:08.697Z,65819.44
2023-04-26T03:23:13.252Z,65811.31
2023-04-26T03:28:18.612Z,65769.81
2023-04-26T03:33:22.904Z,65753.25
2023-04-26T03:38:27.008Z,65748.34
2023-04-26T03:43:32.598Z,65817.38
2023-04-26T03:48:37.447Z,65787.97
2023-04-26T03:53:42.538Z,65843.47
2023-04-26T03:58:47.938Z,65840.81
2023-04-26T04:03:52.132Z,65830.19
2023-04-26T04:08:56.396Z,65853.09
2023-04-26T04:14:02.973Z,65825.94
2023-04-26T04:19:06.985Z,65824.66
2023-04-26T04:24:11.547Z,65810.88
2023-04-26T04:29:16.879Z,65783.63
2023-04-26T04:34:20.969Z,65866.56
2023-04-26T04:39:26.824Z,65844.66
2023-04-26T04:44:32.754Z,65825.41
2023-04-26T04:49:37.525Z,65861.66
2023-04-26T04:54:41.552Z,65835.56
2023-04-26T04:59:47.196Z,65853.00
2023-04-26T05:04:51.521Z,65879.38
2023-04-26T05:09:56.318Z,65842.50
2023-04-26T05:15:01.877Z,65913.06
2023-04-26T05:20:06.994Z,65878.84
2023-04-26T05:25:11.882Z,65908.19
2023-04-26T05:30:18.239Z,65986.19
2023-04-26T05:35:26.348Z,65854.28
2023-04-26T05:40:30.350Z,65915.66
2023-04-26T05:45:35.975Z,65856.94
2023-04-26T05:50:40.176Z,65847.75
2023-04-26T05:55:44.870Z,65855.97
2023-04-26T06:00:50.378Z,65862.81
2023-04-26T06:05:55.250Z,65851.25
2023-04-26T06:11:00.399Z,65926.00
2023-04-26T06:16:07.154Z,65918.50
2023-04-26T06:21:11.045Z,65930.63
2023-04-26T06:26:14.969Z,65918.44
2023-04-26T06:31:21.904Z,65899.72
2023-04-26T06:36:28.259Z,65863.97
2023-04-26T06:41:32.383Z,65948.84
2023-04-26T06:46:38.358Z,65922.06
2023-04-26T06:51:45.141Z,65960.69
2023-04-26T06:56:49.006Z,65873.41
2023-04-26T07:01:54.529Z,65861.13
2023-04-26T07:06:58.468Z,65851.50
2023-04-26T07:12:02.649Z,65850.50
2023-04-26T07:17:08.040Z,65914.69
2023-04-26T07:22:12.163Z,65958.34
2023-04-26T07:27:16.426Z,66022.75
2023-04-26T07:32:21.743Z,65976.19
2023-04-26T07:37:25.672Z,65907.72
2023-04-26T07:42:29.666Z,66003.50
2023-04-26T07:47:34.985Z,65963.88
2023-04-26T07:52:39.018Z,66059.19
2023-04-26T07:57:43.241Z,66025.97
2023-04-26T08:02:48.679Z,66012.69
2023-04-26T08:07:52.801Z,66018.66
2023-04-26T08:12:58.299Z,66032.03
2023-04-26T08:18:03.890Z,66058.22
2023-04-26T08:23:08.173Z,66113.81
2023-04-26T08:28:14.597Z,66059.72
2023-04-26T08:33:20.655Z,66073.13
2023-04-26T08:38:24.994Z,66019.09
2023-04-26T08:43:29.709Z,66129.97
2023-04-26T08:48:37.564Z,66077.50
2023-04-26T08:53:43.128Z,66096.06
2023-04-26T08:58:47.277Z,65994.94
2023-04-26T09:03:53.054Z,66047.50
2023-04-26T09:08:58.785Z,66134.88
2023-04-26T09:14:02.707Z,66223.03
2023-04-26T09:19:08.196Z,66122.94
2023-04-26T09:24:12.449Z,66111.56
2023-04-26T09:29:17.877Z,66011.00
2023-04-26T09:34:23.250Z,66121.75
2023-04-26T09:39:34.363Z,66087.66
2023-04-26T09:44:39.204Z,66085.97
2023-04-26T09:49:48.918Z,66139.53
2023-04-26T09:54:54.975Z,66169.06
2023-04-26T10:00:00.971Z,66199.63
2023-04-26T10:05:08.884Z,66098.81
2023-04-26T10:10:13.662Z,66041.50
2023-04-26T10:15:19.761Z,66054.81
2023-04-26T10:20:28.360Z,66046.84
2023-04-26T10:25:40.318Z,66135.78
2023-04-26T10:30:57.647Z,66126.22
2023-04-26T10:36:13.558Z,66142.13
2023-04-26T10:41:36.119Z,66145.59
2023-04-26T10:46:43.358Z,66075.69
2023-04-26T10:52:17.204Z,66128.81
2023-04-26T10:57:21.840Z,66154.34
2023-04-26T11:02:48.319Z,66199.72
2023-04-26T11:08:05.176Z,66177.19
2023-04-26T11:13:09.203Z,66180.25
2023-04-26T11:18:13.222Z,66107.38
2023-04-26T11:23:19.872Z,66061.34
2023-04-26T11:28:24.349Z,66117.03
2023-04-26T11:33:28.484Z,66212.59
2023-04-26T11:38:33.820Z,66169.06
2023-04-26T11:43:39.019Z,66138.63
2023-04-26T11:48:43.547Z,66196.34
2023-04-26T11:53:48.763Z,66167.38
2023-04-26T11:58:53.985Z,66231.16
2023-04-26T12:03:59.681Z,66213.13
2023-04-26T12:09:06.424Z,66292.94
2023-04-26T12:14:11.587Z,66273.19
2023-04-26T12:19:17.239Z,66198.38
2023-04-26T12:24:26.665Z,66213.94
2023-04-26T12:29:32.020Z,66084.34
2023-04-26T12:34:36.005Z,66105.25
2023-04-26T12:39:41.344Z,66109.53
2023-04-26T12:44:45.312Z,66098.81
2023-04-26T12:49:49.217Z,66101.06
2023-04-26T12:54:54.756Z,66116.56
2023-04-26T12:59:58.813Z,66190.97
2023-04-26T13:05:06.510Z,66450.84
2023-04-26T13:10:13.315Z,66349.91
2023-04-26T13:15:17.925Z,66401.25
2023-04-26T13:20:23.195Z,66554.00
2023-04-26T13:25:30.387Z,66326.13
2023-04-26T13:30:34.353Z,66220.00
2023-04-26T13:35:38.270Z,66108.56
2023-04-26T13:40:43.602Z,66171.13
2023-04-26T13:45:47.531Z,66211.97
2023-04-26T13:50:51.532Z,66230.03
2023-04-26T13:55:56.804Z,66211.88
2023-04-26T14:01:01.676Z,66357.22
2023-04-26T14:06:06.087Z,66543.13
2023-04-26T14:11:12.129Z,66275.25
2023-04-26T14:16:17.358Z,66192.13
2023-04-26T14:21:21.472Z,66153.00
2023-04-26T14:26:27.475Z,66182.22
2023-04-26T14:31:31.961Z,66070.06
2023-04-26T14:36:36.894Z,66413.09
2023-04-26T14:41:43.666Z,66465.72
2023-04-26T14:46:47.776Z,66467.31
2023-04-26T14:51:55.911Z,66567.81
2023-04-26T14:57:01.469Z,66463.09
2023-04-26T15:02:05.724Z,66345.44
2023-04-26T15:07:15.283Z,66407.75
2023-04-26T15:12:26.283Z,66448.50
2023-04-26T15:17:33.025Z,66259.16
2023-04-26T15:22:38.746Z,66265.06
2023-04-26T15:27:45.955Z,66331.09
2023-04-26T15:32:50.627Z,66318.16
2023-04-26T15:37:54.834Z,66153.47
2023-04-26T15:43:00.156Z,66105.06
2023-04-26T15:48:04.338Z,66191.69
2023-04-26T15:53:08.288Z,66238.59
2023-04-26T15:58:13.649Z,66317.53
2023-04-26T16:03:18.203Z,66380.41
2023-04-26T16:08:39.605Z,66290.19
2023-04-26T16:13:45.801Z,66309.56
2023-04-26T16:18:49.748Z,66253.34
2023-04-26T16:23:53.651Z,66251.66
2023-04-26T16:28:58.953Z,66170.31
2023-04-26T16:34:03.014Z,66001.88
2023-04-26T16:39:07.714Z,66038.84
2023-04-26T16:44:13.131Z,66003.94
2023-04-26T16:49:17.127Z,66031.41
2023-04-26T16:54:21.419Z,65987.88
2023-04-26T16:59:27.598Z,65977.91
2023-04-26T17:04:32.161Z,65964.97
2023-04-26T17:09:38.573Z,65949.44
2023-04-26T17:14:44.133Z,65988.50
2023-04-26T17:19:48.109Z,65996.00
2023-04-26T17:24:52.080Z,66033.47
2023-04-26T17:29:57.433Z,66099.00
2023-04-26T17:35:01.460Z,66069.47
2023-04-26T17:40:07.791Z,66063.63
2023-04-26T17:45:14.829Z,65995.91
2023-04-26T17:50:21.174Z,66028.75
2023-04-26T17:55:25.219Z,65939.75
2023-04-26T18:00:30.556Z,65973.06
2023-04-26T18:05:34.684Z,65943.66
2023-04-26T18:10:38.683Z,65973.53
2023-04-26T18:15:44.240Z,65986.81
2023-04-26T18:20:48.152Z,65906.59
2023-04-26T18:25:52.134Z,65936.63
2023-04-26T18:30:59.101Z,65936.50
2023-04-26T18:36:03.084Z,65966.66
2023-04-26T18:41:07.420Z,65934.38
2023-04-26T18:46:12.855Z,65896.50
2023-04-26T18:51:16.996Z,65908.34
2023-04-26T18:56:21.027Z,65780.59
2023-04-26T19:01:26.641Z,65829.78
2023-04-26T19:06:31.562Z,65848.91
2023-04-26T19:11:35.469Z,65857.91
2023-04-26T19:16:40.856Z,65831.91
2023-04-26T19:21:44.837Z,65843.03
2023-04-26T19:26:48.727Z,65854.81
2023-04-26T19:31:54.350Z,65860.66
2023-04-26T19:36:58.556Z,65815.88
2023-04-26T19:42:03.322Z,65765.09
2023-04-26T19:47:09.018Z,65771.41
2023-04-26T19:52:13.523Z,65779.06
2023-04-26T19:57:17.690Z,65738.28
2023-04-26T20:02:23.146Z,65679.34
2023-04-26T20:07:27.679Z,65691.31
2023-04-26T20:12:31.824Z,65701.44
2023-04-26T20:17:37.564Z,65707.31
2023-04-26T20:22:42.087Z,65660.25
2023-04-26T20:27:47.218Z,65615.53
2023-04-26T20:32:52.979Z,65619.25
2023-04-26T20:37:57.594Z,65661.41
2023-04-26T20:43:01.989Z,65723.53
2023-04-26T20:48:07.820Z,65752.19
2023-04-26T20:53:11.629Z,65667.47
2023-04-26T20:58:15.642Z,65682.75
2023-04-26T21:03:21.112Z,65700.56
2023-04-26T21:08:25.369Z,65670.56
2023-04-26T21:13:30.307Z,65707.50
2023-04-26T21:18:35.993Z,65724.41
2023-04-26T21:23:40.028Z,65671.00
2023-04-26T21:28:43.989Z,65665.25
2023-04-26T21:33:49.832Z,65676.34
2023-04-26T21:38:53.810Z,65669.50
2023-04-26T21:43:58.760Z,65665.78
2023-04-26T21:49:04.087Z,65649.03
2023-04-26T21:54:08.272Z,65690.69
2023-04-26T21:59:12.557Z,65722.38
2023-04-26T22:04:18.213Z,65800.03
2023-04-26T22:09:22.575Z,65722.91
2023-04-26T22:14:26.906Z,65641.22
2023-04-26T22:19:32.226Z,65734.75
2023-04-26T22:24:36.296Z,65748.53
2023-04-26T22:29:40.511Z,65798.66
2023-04-26T22:34:45.992Z,65735.28
2023-04-26T22:39:50.254Z,65772.56
2023-04-26T22:44:54.187Z,65828.16
2023-04-26T22:49:59.693Z,65857.56
2023-04-26T22:55:03.994Z,65734.63
2023-04-26T23:00:12.644Z,65807.44
2023-04-26T23:05:18.594Z,65756.53
2023-04-26T23:10:22.804Z,65774.16
2023-04-26T23:15:27.156Z,65784.41
2023-04-26T23:20:32.507Z,65751.56
2023-04-26T23:25:36.521Z,65791.81
2023-04-26T23:30:40.780Z,65782.19
2023-04-26T23:35:46.203Z,65833.50
2023-04-26T23:40:50.250Z,65851.03
2023-04-26T23:45:54.258Z,65825.94
2023-04-26T23:51:00.338Z,65801.44
2023-04-26T23:56:04.518Z,65840.88
